Terminal Aerodrome Forecast
Issued by NWS

Current Version | Previous Version | Text Only | Print | Product List | Glossary Off
Versions: 1 2 3 4 5 6 7 8 9 10 11 12 13 14 15 16 17 18 19 20

000
FTUS41 KPBZ 241459 AAA
TAFMGW
TAF AMD
KMGW 241459Z 2415/2512 26006KT P6SM BKN015
     FM241700 26007KT P6SM BKN035
     FM241800 26009KT P6SM VCSH BKN035
     FM242200 28007KT P6SM SCT050=

USA.gov is the U.S. government's official web portal to all federal, state and local government web resources and services.